Portada
METAR-TAF:

METAR-TAF

Aeroports :

Cachimbo, Pará, Brasil

latitud: 09-20S, longitud: 054-57W, altitud: 536 m

Observació

L'informe es va fer fa 1 hora i 5 minuts, a les 17:00 UTC
Vent 5 kt del Sud
Temperatura 24°C
Humitat 83%
Pressió 1010 hPa
Visibilitat 10 km o més
Cel ennuvolat a una alçada de 1500 ft
Núvols disperses a una alçada de 8000 ft

METAR: SBCC 171700Z 18005KT 9999 BKN015 SCT080 24/21 Q1010

Hora: 15:05 (18:05 UTC)


TAF: manca

Observacions i pronòstics meteorològics de més de 4000 aeroports (METAR i TAF).

Les estacions disponibles són els punts grocs i vermells al mapa.

Posi el ratolí al punt desitjat per veure el nom de l'estació.

Feu clic per veure les observacions i els pronòstics meteorològics.

Per canviar el mapa: feu clic els botons verds amb una creu de color negre per apropar; al botó verd amb un guió per allunyar la imatge; o en les fletxes verdes per a mapes adjacents.


METAR-TAF: